Lulu Pass Weather Station

This weather station provides temperature, relative humidity (RH), wind speed, gust or max wind speed, and wind direction at 10020ft near Lulu Pass at the head of Fisher Creek. This data can be used with temperature and precipitation data from the Fisher Creek SNOTEL site.

This weather station was purchased by the Friends of the Avalanche Center.

If the data has not been updated recently you can view it directly on datagarrison.com

Elevation
10020ft
Jump to table bottom
Date Time Temperature
deg F
RH, % Wind Speed Wind Gust Wind Direction
08/19/22 23:00 51.8 52 3 6 SE - 121
08/19/22 22:00 50.3 53 3 11 SE - 118
08/19/22 21:00 51.0 52 2 8 NE - 39
08/19/22 20:00 51.9 52 3 9 N - 351
08/19/22 19:00 53.9 50 2 8 NW - 329
08/19/22 18:00 56.9 48 4 13 N - 358
08/19/22 17:00 58.3 48 5 16 N - 351
08/19/22 16:00 61.0 42 8 16 NW - 316
08/19/22 15:00 64.8 42 10 16 NW - 298
08/19/22 14:00 62.9 40 7 17 NW - 299
08/19/22 13:00 61.8 41 9 16 NW - 296
08/19/22 12:00 61.2 46 5 12 SW - 208
08/19/22 11:00 58.8 55 10 17 S - 159
08/19/22 10:00 55.4 60 7 18 S - 166
08/19/22 09:00 55.7 65 8 21 S - 171
08/19/22 08:00 51.3 69 5 17 S - 161
08/19/22 07:00 47.6 75 5 13 SE - 147
08/19/22 06:00 46.3 72 7 11 SE - 115
08/19/22 05:00 52.4 49 5 7 NE - 60
08/19/22 04:00 53.7 55 3 7 NE - 51
08/19/22 03:00 51.4 66 6 8 E - 110
08/19/22 02:00 50.2 71 5 11 SE - 122
08/19/22 01:00 47.9 71 5 11 SE - 138
08/19/22 00:00 48.9 69 4 10 E - 105
08/18/22 23:00 49.1 67 4 10 SE - 121
08/18/22 22:00 51.0 64 4 10 NE - 37
08/18/22 21:00 52.5 60 5 11 NE - 28
08/18/22 20:00 53.9 56 3 9 NE - 34
08/18/22 19:00 57.5 49 4 18 NE - 56
08/18/22 18:00 63.0 46 3 12 W - 271
08/18/22 17:00 62.9 38 11 21 NW - 336
08/18/22 16:00 65.7 32 14 21 NW - 317
08/18/22 15:00 65.6 38 13 19 NW - 309
08/18/22 14:00 64.8 33 11 18 NW - 310
08/18/22 13:00 64.0 31 7 20 W - 278
08/18/22 12:00 64.5 31 6 16 NW - 296
08/18/22 11:00 62.7 30 5 12 W - 275
08/18/22 10:00 63.8 38 3 10 SE - 157
08/18/22 09:00 59.3 46 5 9 SE - 146
08/18/22 08:00 55.9 48 6 9 SE - 138
08/18/22 07:00 51.3 54 5 9 SE - 122
08/18/22 06:00 49.5 54 5 10 SE - 115
08/18/22 05:00 49.3 52 5 9 SE - 121
08/18/22 04:00 51.0 51 4 6 E - 108
08/18/22 03:00 50.5 51 3 6 E - 90
08/18/22 02:00 50.6 50 4 8 NE - 38
08/18/22 01:00 51.1 51 3 8 NE - 44
08/18/22 00:00 51.2 50 3 8 E - 84
08/17/22 23:00 51.8 48 3 7 NE - 59
08/17/22 22:00 53.0 46 5 12 NE - 46